createdAt,value
2024-05-09T00:00:42.402Z,10.20
2024-05-09T00:03:11.062Z,10.10
2024-05-09T00:05:41.489Z,10.10
2024-05-09T00:08:10.040Z,10.10
2024-05-09T00:10:39.260Z,10.10
2024-05-09T00:13:08.092Z,10.00
2024-05-09T00:15:36.131Z,9.90
2024-05-09T00:18:05.239Z,9.90
2024-05-09T00:20:38.648Z,9.90
2024-05-09T00:23:12.613Z,9.80
2024-05-09T00:25:42.426Z,9.80
2024-05-09T00:28:09.800Z,9.70
2024-05-09T00:30:37.570Z,9.80
2024-05-09T00:33:06.464Z,9.80
2024-05-09T00:35:34.847Z,9.80
2024-05-09T00:38:02.181Z,9.80
2024-05-09T00:40:44.938Z,9.80
2024-05-09T00:43:13.588Z,9.80
2024-05-09T00:45:41.724Z,9.80
2024-05-09T00:48:11.082Z,9.80
2024-05-09T00:50:41.608Z,9.80
2024-05-09T00:53:14.219Z,9.80
2024-05-09T00:55:41.920Z,9.70
2024-05-09T00:58:12.028Z,9.70
2024-05-09T01:00:41.244Z,9.70
2024-05-09T01:03:11.780Z,9.70
2024-05-09T01:05:41.148Z,9.70
2024-05-09T01:08:09.840Z,9.60
2024-05-09T01:10:38.109Z,9.70
2024-05-09T01:13:06.729Z,9.60
2024-05-09T01:15:35.852Z,9.60
2024-05-09T01:18:10.723Z,9.60
2024-05-09T01:20:42.507Z,9.60
2024-05-09T01:23:14.157Z,9.50
2024-05-09T01:25:43.253Z,9.50
2024-05-09T01:28:10.380Z,9.50
2024-05-09T01:30:38.294Z,9.50
2024-05-09T01:33:08.470Z,9.50
2024-05-09T01:35:37.567Z,9.40
2024-05-09T01:38:05.270Z,9.40
2024-05-09T01:40:37.878Z,9.40
2024-05-09T01:43:07.907Z,9.40
2024-05-09T01:45:35.286Z,9.40
2024-05-09T01:48:02.969Z,9.30
2024-05-09T01:53:00.932Z,9.20
2024-05-09T01:55:28.687Z,9.20
2024-05-09T01:57:55.755Z,9.20
2024-05-09T02:00:33.851Z,9.20
2024-05-09T02:03:09.054Z,9.10
2024-05-09T02:05:36.565Z,9.10
2024-05-09T02:08:04.356Z,9.10
2024-05-09T02:10:33.108Z,9.00
2024-05-09T02:13:00.752Z,9.00
2024-05-09T02:15:28.203Z,9.00
2024-05-09T02:17:55.412Z,9.10
2024-05-09T02:20:30.676Z,9.10
2024-05-09T02:23:05.069Z,9.10
2024-05-09T02:25:33.004Z,9.10
2024-05-09T02:28:00.167Z,9.10
2024-05-09T02:30:37.790Z,9.10
2024-05-09T02:33:09.243Z,9.10
2024-05-09T02:35:37.344Z,9.10
2024-05-09T02:38:04.579Z,9.00
2024-05-09T02:40:37.185Z,9.00
2024-05-09T02:43:08.539Z,8.90
2024-05-09T02:45:36.961Z,8.90
2024-05-09T02:48:04.353Z,8.90
2024-05-09T02:50:37.905Z,8.90
2024-05-09T02:53:11.613Z,8.90
2024-05-09T02:55:39.229Z,8.90
2024-05-09T02:58:10.123Z,8.90
2024-05-09T03:00:40.776Z,8.90
2024-05-09T03:03:12.869Z,8.90
2024-05-09T03:05:42.646Z,8.90
2024-05-09T03:08:10.186Z,8.90
2024-05-09T03:10:38.811Z,8.80
2024-05-09T03:13:14.038Z,8.80
2024-05-09T03:15:42.765Z,8.80
2024-05-09T03:18:10.694Z,8.70
2024-05-09T03:20:39.039Z,8.70
2024-05-09T03:23:09.979Z,8.70
2024-05-09T03:25:38.346Z,8.70
2024-05-09T03:28:05.920Z,8.80
2024-05-09T03:30:40.143Z,8.80
2024-05-09T03:33:17.396Z,8.70
2024-05-09T03:35:46.502Z,8.70
2024-05-09T03:38:14.235Z,8.70
2024-05-09T03:40:45.820Z,8.70
2024-05-09T03:43:13.368Z,8.70
2024-05-09T03:45:40.386Z,8.70
2024-05-09T03:48:08.352Z,8.60
2024-05-09T03:50:36.750Z,8.60
2024-05-09T03:53:04.701Z,8.60
2024-05-09T03:55:32.176Z,8.60
2024-05-09T03:57:59.801Z,8.60
2024-05-09T04:00:35.137Z,8.60
2024-05-09T04:03:08.898Z,8.60
2024-05-09T04:05:40.015Z,8.70
2024-05-09T04:08:07.895Z,8.60
2024-05-09T04:10:35.800Z,8.70
2024-05-09T04:13:04.496Z,8.70
2024-05-09T04:15:32.299Z,8.70
2024-05-09T04:18:01.044Z,8.70
2024-05-09T04:20:36.684Z,8.70
2024-05-09T04:23:08.491Z,8.70
2024-05-09T04:25:37.666Z,8.70
2024-05-09T04:28:05.443Z,8.80
2024-05-09T04:30:38.178Z,8.80
2024-05-09T04:33:10.272Z,8.90
2024-05-09T04:35:39.652Z,8.90
2024-05-09T04:38:07.888Z,9.00
2024-05-09T04:40:36.928Z,9.00
2024-05-09T04:43:18.825Z,9.00
2024-05-09T04:45:46.225Z,9.00
2024-05-09T04:48:13.578Z,9.10
2024-05-09T04:50:41.004Z,9.10
2024-05-09T04:53:10.506Z,9.20
2024-05-09T04:55:39.169Z,9.20
2024-05-09T04:58:10.272Z,9.30
2024-05-09T05:00:39.746Z,9.40
2024-05-09T05:03:13.275Z,9.40
2024-05-09T05:05:43.545Z,9.40
2024-05-09T05:08:14.074Z,9.50
2024-05-09T05:10:42.164Z,9.60
2024-05-09T05:13:17.866Z,9.70
2024-05-09T05:15:46.505Z,9.80
2024-05-09T05:18:17.064Z,9.80
2024-05-09T05:20:45.053Z,9.90
2024-05-09T05:23:14.285Z,10.00
2024-05-09T05:25:42.013Z,10.10
2024-05-09T05:28:10.226Z,10.10
2024-05-09T05:30:38.308Z,10.20
2024-05-09T05:33:06.900Z,10.30
2024-05-09T05:35:35.100Z,10.30
2024-05-09T05:38:11.734Z,10.40
2024-05-09T05:40:40.080Z,10.50
2024-05-09T05:43:10.292Z,10.60
2024-05-09T05:45:37.902Z,10.60
2024-05-09T05:48:06.633Z,10.70
2024-05-09T05:50:37.202Z,10.80
2024-05-09T05:53:07.074Z,10.90
2024-05-09T05:55:34.955Z,11.00
2024-05-09T05:58:02.897Z,11.00
2024-05-09T06:00:37.617Z,11.10
2024-05-09T06:03:07.498Z,11.20
2024-05-09T06:05:36.641Z,11.30
2024-05-09T06:08:03.821Z,11.40
2024-05-09T06:10:37.826Z,11.40
2024-05-09T06:13:07.611Z,11.50
2024-05-09T06:15:34.696Z,11.60
2024-05-09T06:18:02.095Z,11.60
2024-05-09T06:20:35.792Z,11.70
2024-05-09T06:23:06.502Z,11.70
2024-05-09T06:25:34.778Z,11.80
2024-05-09T06:28:02.124Z,11.90
2024-05-09T06:30:38.020Z,11.90
2024-05-09T06:33:09.248Z,12.00
2024-05-09T06:35:37.506Z,12.00
2024-05-09T06:38:05.036Z,12.10
2024-05-09T06:40:38.188Z,12.10
2024-05-09T06:43:14.993Z,12.10
2024-05-09T06:45:43.773Z,12.20
2024-05-09T06:48:11.264Z,12.20
2024-05-09T06:50:39.925Z,12.20
2024-05-09T06:53:08.607Z,12.30
2024-05-09T06:55:36.805Z,12.40
2024-05-09T06:58:07.144Z,12.40
2024-05-09T07:00:39.324Z,12.40
2024-05-09T07:03:15.270Z,12.50
2024-05-09T07:05:46.000Z,12.60
2024-05-09T07:08:13.992Z,12.60
2024-05-09T07:10:41.652Z,12.70
2024-05-09T07:13:09.999Z,12.70
2024-05-09T07:15:37.229Z,12.70
2024-05-09T07:18:17.368Z,12.80
2024-05-09T07:20:47.658Z,12.90
2024-05-09T07:23:15.741Z,12.90
2024-05-09T07:25:43.596Z,13.00
2024-05-09T07:28:18.483Z,13.00
2024-05-09T07:30:45.683Z,13.10
2024-05-09T07:33:21.848Z,13.10
2024-05-09T07:35:50.221Z,13.10
2024-05-09T07:38:17.378Z,13.20
2024-05-09T07:40:44.451Z,13.30
2024-05-09T07:43:14.765Z,13.30
2024-05-09T07:45:51.156Z,13.40
2024-05-09T07:52:37.300Z,13.50
2024-05-09T07:53:47.838Z,13.50
2024-05-09T07:56:19.935Z,13.60
2024-05-09T07:58:51.525Z,13.60
2024-05-09T08:01:19.667Z,13.60
2024-05-09T08:03:49.376Z,13.70
2024-05-09T08:06:16.620Z,13.70
2024-05-09T08:08:45.585Z,13.80
2024-05-09T08:11:12.784Z,13.80
2024-05-09T08:13:39.864Z,13.80
2024-05-09T08:16:07.411Z,13.80
2024-05-09T08:18:34.747Z,13.90
2024-05-09T08:21:02.659Z,13.90
2024-05-09T08:23:29.711Z,14.00
2024-05-09T08:25:56.805Z,14.10
2024-05-09T08:28:23.897Z,14.10
2024-05-09T08:30:51.099Z,14.20
2024-05-09T08:33:18.689Z,14.20
2024-05-09T08:35:45.751Z,14.30
2024-05-09T08:38:13.270Z,14.30
2024-05-09T08:40:43.371Z,14.30
2024-05-09T08:43:12.035Z,14.40
2024-05-09T08:45:44.955Z,14.40
2024-05-09T08:48:17.834Z,14.40
2024-05-09T08:50:45.902Z,14.50
2024-05-09T08:53:15.367Z,14.50
2024-05-09T08:55:44.142Z,14.50
2024-05-09T08:58:20.025Z,14.50
2024-05-09T09:00:49.573Z,14.60
2024-05-09T09:03:25.084Z,14.60
2024-05-09T09:06:10.548Z,14.60
2024-05-09T09:08:40.993Z,14.60
2024-05-09T09:11:11.187Z,14.70
2024-05-09T09:13:38.895Z,14.70
2024-05-09T09:16:06.843Z,14.80
2024-05-09T09:18:34.539Z,14.80
2024-05-09T09:21:03.183Z,14.80
2024-05-09T09:23:31.365Z,14.90
2024-05-09T09:25:59.897Z,14.90
2024-05-09T09:28:27.058Z,15.00
2024-05-09T09:30:54.141Z,15.00
2024-05-09T09:33:21.626Z,15.00
2024-05-09T09:35:48.789Z,15.00
2024-05-09T09:38:20.141Z,15.10
2024-05-09T09:40:50.464Z,15.10
2024-05-09T09:43:22.587Z,15.20
2024-05-09T09:45:51.664Z,15.20
2024-05-09T09:48:21.344Z,15.30
2024-05-09T09:50:51.270Z,15.40
2024-05-09T09:53:19.064Z,15.40
2024-05-09T09:55:46.963Z,15.40
2024-05-09T09:58:17.429Z,15.50
2024-05-09T10:00:45.116Z,15.50
2024-05-09T10:03:12.997Z,15.60
2024-05-09T10:05:43.089Z,15.60
2024-05-09T10:08:15.033Z,15.70
2024-05-09T10:10:47.829Z,15.70
2024-05-09T10:13:22.802Z,15.70
2024-05-09T10:15:54.467Z,15.80
2024-05-09T10:18:28.425Z,15.80
2024-05-09T10:20:58.089Z,15.80
2024-05-09T10:23:29.402Z,15.90
2024-05-09T10:25:58.192Z,15.90
2024-05-09T10:28:33.765Z,16.00
2024-05-09T10:31:09.201Z,16.00
2024-05-09T10:33:41.678Z,16.10
2024-05-09T10:36:20.934Z,16.10
2024-05-09T10:38:55.404Z,16.20
2024-05-09T10:41:23.766Z,16.20
2024-05-09T10:43:51.448Z,16.30
2024-05-09T10:46:19.498Z,16.40
2024-05-09T10:48:48.273Z,16.40
2024-05-09T10:51:19.511Z,16.40
2024-05-09T10:53:48.319Z,16.40
2024-05-09T10:56:16.135Z,16.40
2024-05-09T10:58:44.919Z,16.40
2024-05-09T11:01:13.561Z,16.40
2024-05-09T11:03:47.005Z,16.50
2024-05-09T11:06:18.337Z,16.50
2024-05-09T11:08:47.023Z,16.60
2024-05-09T11:11:14.726Z,16.70
2024-05-09T11:13:42.706Z,16.70
2024-05-09T11:16:21.054Z,16.80
2024-05-09T11:18:58.231Z,16.80
2024-05-09T11:21:25.976Z,16.90
2024-05-09T11:23:54.785Z,17.00
2024-05-09T11:26:22.387Z,17.00
2024-05-09T11:28:50.890Z,17.00
2024-05-09T11:31:18.756Z,17.00
2024-05-09T11:33:46.736Z,17.00
2024-05-09T11:36:14.471Z,17.00
2024-05-09T11:38:41.915Z,17.10
2024-05-09T11:41:09.348Z,17.20
2024-05-09T11:43:36.457Z,17.20
2024-05-09T11:46:04.242Z,17.20
2024-05-09T11:48:32.393Z,17.30
2024-05-09T11:50:59.856Z,17.30
2024-05-09T11:53:27.165Z,17.30
2024-05-09T11:55:54.658Z,17.30
2024-05-09T11:58:23.025Z,17.40
2024-05-09T12:00:50.543Z,17.40
2024-05-09T12:03:17.964Z,17.50
2024-05-09T12:05:45.530Z,17.50
2024-05-09T12:08:12.947Z,17.60
2024-05-09T12:10:40.189Z,17.70
2024-05-09T12:13:07.883Z,17.60
2024-05-09T12:15:39.211Z,17.60
2024-05-09T12:18:08.082Z,17.60
2024-05-09T12:20:38.860Z,17.60
2024-05-09T12:23:09.782Z,17.60
2024-05-09T12:25:39.155Z,17.60
2024-05-09T12:28:07.528Z,17.70
2024-05-09T12:30:39.849Z,17.70
2024-05-09T12:33:10.289Z,17.80
2024-05-09T12:35:38.368Z,17.80
2024-05-09T12:38:06.500Z,17.80
2024-05-09T12:40:37.386Z,17.80
2024-05-09T12:43:10.839Z,17.80
2024-05-09T12:45:39.086Z,17.70
2024-05-09T12:48:11.697Z,17.70
2024-05-09T12:50:47.592Z,17.80
2024-05-09T12:53:14.781Z,17.80
2024-05-09T12:55:48.961Z,17.80
2024-05-09T12:58:24.133Z,17.80
2024-05-09T13:00:52.837Z,17.80
2024-05-09T13:03:20.689Z,17.80
2024-05-09T13:05:49.017Z,17.90
2024-05-09T13:08:16.621Z,17.80
2024-05-09T13:10:44.321Z,17.80
2024-05-09T13:13:12.372Z,17.90
2024-05-09T13:15:39.884Z,17.90
2024-05-09T13:18:07.708Z,18.00
2024-05-09T13:20:36.573Z,18.00
2024-05-09T13:23:05.893Z,18.10
2024-05-09T13:25:35.681Z,18.00
2024-05-09T13:28:04.921Z,18.00
2024-05-09T13:30:39.375Z,18.00
2024-05-09T13:33:10.307Z,18.00
2024-05-09T13:35:38.315Z,18.10
2024-05-09T13:38:05.557Z,18.10
2024-05-09T13:40:35.578Z,18.10
2024-05-09T13:43:06.732Z,18.10
2024-05-09T13:45:35.148Z,18.20
2024-05-09T13:48:04.139Z,18.10
2024-05-09T13:50:35.652Z,18.20
2024-05-09T13:53:08.458Z,18.20
2024-05-09T13:55:39.897Z,18.20
2024-05-09T13:58:08.632Z,18.20
2024-05-09T14:00:44.730Z,18.20
2024-05-09T14:03:18.221Z,18.30
2024-05-09T14:05:47.485Z,18.30
2024-05-09T14:08:15.829Z,18.30
2024-05-09T14:10:47.089Z,18.30
2024-05-09T14:13:15.297Z,18.30
2024-05-09T14:15:42.647Z,18.30
2024-05-09T14:18:13.152Z,18.30
2024-05-09T14:20:41.823Z,18.40
2024-05-09T14:23:09.410Z,18.40
2024-05-09T14:25:42.287Z,18.30
2024-05-09T14:28:11.034Z,18.30
2024-05-09T14:30:39.515Z,18.30
2024-05-09T14:33:08.419Z,18.20
2024-05-09T14:35:38.395Z,18.30
2024-05-09T14:38:07.718Z,18.30
2024-05-09T14:40:42.464Z,18.30
2024-05-09T14:43:12.408Z,18.30
2024-05-09T14:45:40.608Z,18.30
2024-05-09T14:48:12.090Z,18.30
2024-05-09T14:50:40.656Z,18.30
2024-05-09T14:53:12.571Z,18.20
2024-05-09T14:55:42.266Z,18.30
2024-05-09T14:58:11.194Z,18.20
2024-05-09T15:00:47.920Z,18.20
2024-05-09T15:03:22.297Z,18.20
2024-05-09T15:05:51.211Z,18.20
2024-05-09T15:08:19.982Z,18.20
2024-05-09T15:10:50.298Z,18.20
2024-05-09T15:13:19.436Z,18.20
2024-05-09T15:15:48.196Z,18.20
2024-05-09T15:18:16.000Z,18.20
2024-05-09T15:20:44.769Z,18.20
2024-05-09T15:23:14.100Z,18.20
2024-05-09T15:25:41.254Z,18.20
2024-05-09T15:28:09.090Z,18.20
2024-05-09T15:30:37.067Z,18.20
2024-05-09T15:33:06.358Z,18.10
2024-05-09T15:35:35.137Z,18.10
2024-05-09T15:38:05.681Z,18.10
2024-05-09T15:40:39.312Z,18.10
2024-05-09T15:43:09.950Z,18.10
2024-05-09T15:45:40.102Z,18.00
2024-05-09T15:48:09.575Z,17.90
2024-05-09T15:50:41.664Z,17.90
2024-05-09T15:53:12.209Z,17.90
2024-05-09T15:55:42.365Z,17.90
2024-05-09T15:58:13.157Z,17.90
2024-05-09T16:00:47.158Z,17.90
2024-05-09T16:03:16.107Z,17.90
2024-05-09T16:05:45.535Z,17.80
2024-05-09T16:08:14.772Z,17.80
2024-05-09T16:10:46.224Z,17.70
2024-05-09T16:13:17.418Z,17.70
2024-05-09T16:15:48.970Z,17.70
2024-05-09T16:18:16.583Z,17.70
2024-05-09T16:20:46.412Z,17.70
2024-05-09T16:23:15.919Z,17.60
2024-05-09T16:25:46.312Z,17.60
2024-05-09T16:28:13.760Z,17.60
2024-05-09T16:30:43.627Z,17.60
2024-05-09T16:33:12.422Z,17.60
2024-05-09T16:35:40.020Z,17.60
2024-05-09T16:38:08.114Z,17.60
2024-05-09T16:40:40.136Z,17.60
2024-05-09T16:43:14.012Z,17.60
2024-05-09T16:45:46.602Z,17.60
2024-05-09T16:48:15.865Z,17.60
2024-05-09T16:50:44.036Z,17.60
2024-05-09T16:53:13.915Z,17.50
2024-05-09T16:55:41.020Z,17.50
2024-05-09T16:58:08.619Z,17.50
2024-05-09T17:00:41.437Z,17.40
2024-05-09T17:03:13.185Z,17.40
2024-05-09T17:05:43.086Z,17.40
2024-05-09T17:08:10.555Z,17.40
2024-05-09T17:10:39.040Z,17.30
2024-05-09T17:13:07.767Z,17.40
2024-05-09T17:15:37.306Z,17.40
2024-05-09T17:18:06.549Z,17.40
2024-05-09T17:20:36.582Z,17.40
2024-05-09T17:23:12.314Z,17.30
2024-05-09T17:25:40.024Z,17.30
2024-05-09T17:28:08.838Z,17.30
2024-05-09T17:30:39.093Z,17.20
2024-05-09T17:33:10.534Z,17.20
2024-05-09T17:35:41.340Z,17.10
2024-05-09T17:38:09.275Z,17.10
2024-05-09T17:40:38.336Z,17.00
2024-05-09T17:43:08.864Z,16.90
2024-05-09T17:45:39.452Z,16.90
2024-05-09T17:48:12.314Z,16.90
2024-05-09T17:50:40.293Z,16.90
2024-05-09T17:53:09.975Z,16.80
2024-05-09T17:55:41.556Z,16.80
2024-05-09T17:58:09.816Z,16.70
2024-05-09T18:00:40.322Z,16.60
2024-05-09T18:03:13.996Z,16.60
2024-05-09T18:05:43.092Z,16.60
2024-05-09T18:08:11.409Z,16.60
2024-05-09T18:10:40.877Z,16.50
2024-05-09T18:13:09.410Z,16.50
2024-05-09T18:15:39.116Z,16.50
2024-05-09T18:18:11.301Z,16.50
2024-05-09T18:20:44.000Z,16.40
2024-05-09T18:23:16.339Z,16.50
2024-05-09T18:25:45.221Z,16.50
2024-05-09T18:28:12.476Z,16.50
2024-05-09T18:30:40.972Z,16.40
2024-05-09T18:33:11.845Z,16.40
2024-05-09T18:35:42.402Z,16.40
2024-05-09T18:38:09.926Z,16.40
2024-05-09T18:40:38.429Z,16.30
2024-05-09T18:43:08.490Z,16.30
2024-05-09T18:45:39.901Z,16.20
2024-05-09T18:48:09.103Z,16.20
2024-05-09T18:50:39.757Z,16.20
2024-05-09T18:53:10.402Z,16.10
2024-05-09T18:55:38.306Z,16.10
2024-05-09T18:58:05.761Z,16.00
2024-05-09T19:00:37.690Z,16.00
2024-05-09T19:03:12.613Z,15.90
2024-05-09T19:05:43.260Z,15.90
2024-05-09T19:08:13.360Z,15.90
2024-05-09T19:10:41.447Z,15.80
2024-05-09T19:13:12.185Z,15.80
2024-05-09T19:15:41.871Z,15.70
2024-05-09T19:18:11.020Z,15.70
2024-05-09T19:20:39.001Z,15.70
2024-05-09T19:23:07.185Z,15.60
2024-05-09T19:25:35.675Z,15.50
2024-05-09T19:28:03.932Z,15.50
2024-05-09T19:30:38.858Z,15.50
2024-05-09T19:33:10.239Z,15.50
2024-05-09T19:35:38.581Z,15.50
2024-05-09T19:38:05.789Z,15.40
2024-05-09T19:40:34.705Z,15.40
2024-05-09T19:43:05.612Z,15.40
2024-05-09T19:45:35.005Z,15.30
2024-05-09T19:48:04.764Z,15.30
2024-05-09T19:50:40.706Z,15.30
2024-05-09T19:53:12.152Z,15.30
2024-05-09T19:55:40.284Z,15.20
2024-05-09T19:58:08.778Z,15.20
2024-05-09T20:00:39.556Z,15.10
2024-05-09T20:03:09.848Z,15.10
2024-05-09T20:05:38.667Z,15.00
2024-05-09T20:08:07.234Z,14.90
2024-05-09T20:10:36.372Z,14.90
2024-05-09T20:13:07.173Z,14.90
2024-05-09T20:15:36.736Z,14.80
2024-05-09T20:18:06.087Z,14.80
2024-05-09T20:20:39.550Z,14.70
2024-05-09T20:23:11.042Z,14.70
2024-05-09T20:25:38.693Z,14.80
2024-05-09T20:28:06.387Z,14.70
2024-05-09T20:30:35.689Z,14.70
2024-05-09T20:33:05.632Z,14.70
2024-05-09T20:35:34.734Z,14.70
2024-05-09T20:38:03.248Z,14.70
2024-05-09T20:40:35.514Z,14.70
2024-05-09T20:43:07.070Z,14.70
2024-05-09T20:45:35.286Z,14.70
2024-05-09T20:48:04.730Z,14.70
2024-05-09T20:50:38.669Z,14.70
2024-05-09T20:53:14.004Z,14.70
2024-05-09T20:55:43.480Z,14.70
2024-05-09T20:58:11.190Z,14.70
2024-05-09T21:00:42.474Z,14.70
2024-05-09T21:03:13.798Z,14.70
2024-05-09T21:05:42.367Z,14.70
2024-05-09T21:08:12.860Z,14.70
2024-05-09T21:10:40.040Z,14.70
2024-05-09T21:13:07.601Z,14.70
2024-05-09T21:15:36.115Z,14.70
2024-05-09T21:18:06.769Z,14.60
2024-05-09T21:20:34.991Z,14.60
2024-05-09T21:23:02.786Z,14.60
2024-05-09T21:25:31.580Z,14.60
2024-05-09T21:27:58.880Z,14.60
2024-05-09T21:30:33.110Z,14.60
2024-05-09T21:33:13.983Z,14.60
2024-05-09T21:35:43.305Z,14.50
2024-05-09T21:38:11.072Z,14.50
2024-05-09T21:40:41.214Z,14.50
2024-05-09T21:43:10.994Z,14.50
2024-05-09T21:45:38.259Z,14.50
2024-05-09T21:48:07.563Z,14.50
2024-05-09T21:50:40.345Z,14.40
2024-05-09T21:53:11.008Z,14.40
2024-05-09T21:55:38.542Z,14.30
2024-05-09T21:58:06.199Z,14.30
2024-05-09T22:00:38.182Z,14.40
2024-05-09T22:03:11.000Z,14.30
2024-05-09T22:05:42.472Z,14.30
2024-05-09T22:08:11.493Z,14.30
2024-05-09T22:10:39.015Z,14.30
2024-05-09T22:13:07.096Z,14.30
2024-05-09T22:15:37.644Z,14.20
2024-05-09T22:18:06.333Z,14.20
2024-05-09T22:20:37.734Z,14.20
2024-05-09T22:23:08.656Z,14.20
2024-05-09T22:25:37.262Z,14.20
2024-05-09T22:28:05.319Z,14.20
2024-05-09T22:30:37.187Z,14.20
2024-05-09T22:33:10.194Z,14.10
2024-05-09T22:35:39.528Z,14.10
2024-05-09T22:38:07.126Z,14.10
2024-05-09T22:40:46.478Z,14.00
2024-05-09T22:43:21.737Z,13.90
2024-05-09T22:45:51.247Z,13.90
2024-05-09T22:48:19.644Z,13.90
2024-05-09T22:50:47.757Z,13.90
2024-05-09T22:53:15.148Z,13.90
2024-05-09T22:55:42.674Z,13.90
2024-05-09T22:58:09.930Z,13.90
2024-05-09T23:00:37.289Z,13.90
2024-05-09T23:03:04.532Z,13.90
2024-05-09T23:05:34.766Z,13.90
2024-05-09T23:08:03.101Z,13.90
2024-05-09T23:10:35.954Z,13.90
2024-05-09T23:13:07.733Z,13.90
2024-05-09T23:15:37.489Z,13.80
2024-05-09T23:18:05.102Z,13.80
2024-05-09T23:20:37.175Z,13.80
2024-05-09T23:23:10.952Z,13.80
2024-05-09T23:25:41.125Z,13.80
2024-05-09T23:28:08.824Z,13.80
2024-05-09T23:30:40.197Z,13.70
2024-05-09T23:33:10.927Z,13.70
2024-05-09T23:35:41.745Z,13.70
2024-05-09T23:38:08.818Z,13.70
2024-05-09T23:40:40.125Z,13.60
2024-05-09T23:43:09.472Z,13.60
2024-05-09T23:45:37.459Z,13.60
2024-05-09T23:48:08.399Z,13.60
2024-05-09T23:50:39.066Z,13.60
2024-05-09T23:53:09.506Z,13.50
2024-05-09T23:55:37.764Z,13.50
2024-05-09T23:58:05.352Z,13.50
